Time;durP1;ratioP1;P1;durP2;ratioP2;P2;SDS_P1;SDS_P2;PMS_P1;PMS_P2;Temp;Humidity;BMP_temperature;BMP_pressure;BME280_temperature;BME280_humidity;BME280_pressure;Samples;Min_cycle;Max_cycle;Signal;HPM_P1;HPM_P2
2023/09/09 00:00:52;;;;;;;;;11.75;11.50;;;;;32.32;80.89;100889.13;2104314;28;46194;-61
2023/09/09 00:01:52;;;;;;;;;14.60;13.00;;;;;32.31;80.95;100891.00;2091655;28;46869;-62
2023/09/09 00:02:53;;;;;;;;;14.50;13.75;;;;;32.32;80.81;100889.13;2087381;28;46567;-63
2023/09/09 00:03:53;;;;;;;;;14.50;14.50;;;;;32.31;80.69;100887.41;2095264;28;46846;-62
2023/09/09 00:04:54;;;;;;;;;12.75;12.25;;;;;32.32;80.80;100886.38;2093719;28;46621;-63
2023/09/09 00:05:54;;;;;;;;;15.75;15.75;;;;;32.33;80.92;100888.09;2097974;27;46313;-62
2023/09/09 00:06:56;;;;;;;;;12.25;12.25;;;;;32.33;81.00;100883.47;2104207;28;46035;-62
2023/09/09 00:07:56;;;;;;;;;13.00;13.00;;;;;32.32;80.92;100887.25;2103906;28;46665;-62
2023/09/09 00:08:56;;;;;;;;;13.25;13.25;;;;;32.32;81.09;100884.50;2095856;28;46241;-63
2023/09/09 00:09:57;;;;;;;;;14.50;13.50;;;;;32.33;81.17;100891.69;2095793;28;46552;-62
2023/09/09 00:10:57;;;;;;;;;13.75;13.50;;;;;32.34;80.75;100889.81;2104541;28;46415;-62
2023/09/09 00:11:57;;;;;;;;;15.25;15.25;;;;;32.33;80.94;100890.84;2104039;28;46331;-64
2023/09/09 00:12:58;;;;;;;;;14.00;13.25;;;;;32.33;80.66;100891.69;2087409;28;46242;-62
2023/09/09 00:13:58;;;;;;;;;13.75;13.75;;;;;32.32;80.62;100884.50;2087127;28;46220;-61
2023/09/09 00:14:58;;;;;;;;;13.25;12.00;;;;;32.32;81.15;100894.63;2091258;28;46820;-62
2023/09/09 00:15:59;;;;;;;;;16.25;14.25;;;;;32.33;80.86;100891.69;2088083;28;46343;-61
2023/09/09 00:16:59;;;;;;;;;14.00;12.50;;;;;32.29;80.48;100889.47;2079278;28;46640;-62
2023/09/09 00:18:02;;;;;;;;;11.25;10.00;;;;;32.30;81.05;100894.78;2079323;28;46331;-63
2023/09/09 00:19:02;;;;;;;;;14.00;13.20;;;;;32.28;80.62;100888.63;2087455;28;46397;-62
2023/09/09 00:20:06;;;;;;;;;15.00;12.50;;;;;32.27;80.73;100886.88;2080135;28;46678;-61
2023/09/09 00:21:06;;;;;;;;;11.40;10.80;;;;;32.22;80.63;100883.75;2087047;28;46382;-62
2023/09/09 00:22:07;;;;;;;;;12.00;12.00;;;;;32.29;80.57;100890.34;2086116;28;46812;-60
2023/09/09 00:23:07;;;;;;;;;12.75;11.75;;;;;32.34;80.05;100881.56;2087835;28;46410;-62
2023/09/09 00:24:08;;;;;;;;;11.50;11.50;;;;;32.36;79.90;100885.84;2087900;28;46915;-61
2023/09/09 00:25:08;;;;;;;;;13.50;12.75;;;;;32.35;79.78;100883.28;2086555;28;46515;-62
2023/09/09 00:26:09;;;;;;;;;12.25;12.00;;;;;32.35;80.21;100886.03;2087213;28;46516;-62
2023/09/09 00:27:09;;;;;;;;;12.75;12.75;;;;;32.32;80.08;100880.88;2087235;28;46530;-64
2023/09/09 00:28:11;;;;;;;;;15.50;14.50;;;;;32.32;80.06;100887.25;2089823;28;46802;-62
2023/09/09 00:29:11;;;;;;;;;13.00;13.00;;;;;32.30;79.74;100883.81;2087107;28;46582;-62
2023/09/09 00:30:12;;;;;;;;;13.00;13.00;;;;;32.32;79.94;100883.63;2087498;28;46548;-63
2023/09/09 00:31:12;;;;;;;;;11.75;11.75;;;;;32.32;80.43;100881.75;2087497;28;47324;-62
2023/09/09 00:32:13;;;;;;;;;13.75;12.25;;;;;32.32;79.95;100876.25;2087250;28;46972;-63
2023/09/09 00:33:13;;;;;;;;;11.00;11.00;;;;;32.32;79.78;100880.88;2090072;28;46466;-63
2023/09/09 00:34:13;;;;;;;;;9.50;9.50;;;;;32.33;80.14;100877.09;2094413;28;46760;-62
2023/09/09 00:35:14;;;;;;;;;13.25;12.25;;;;;32.31;79.67;100879.16;2095640;27;46253;-62
2023/09/09 00:36:14;;;;;;;;;12.50;12.50;;;;;32.31;80.21;100880.03;2101703;27;46427;-62
2023/09/09 00:37:14;;;;;;;;;12.75;12.75;;;;;32.28;79.81;100877.63;2104098;28;46286;-61
2023/09/09 00:38:15;;;;;;;;;14.25;14.25;;;;;32.26;80.05;100876.88;2104140;28;46683;-62
2023/09/09 00:39:15;;;;;;;;;14.25;12.75;;;;;32.26;79.58;100878.78;2102522;28;46757;-61
2023/09/09 00:40:16;;;;;;;;;13.75;13.75;;;;;32.24;80.28;100876.19;2104661;28;46215;-63
2023/09/09 00:41:18;;;;;;;;;14.00;14.00;;;;;32.25;79.81;100874.31;2104390;28;45526;-63
2023/09/09 00:42:19;;;;;;;;;14.00;14.00;;;;;32.23;80.41;100877.22;2103718;27;46448;-63
2023/09/09 00:43:19;;;;;;;;;14.75;14.75;;;;;32.24;80.23;100878.94;2095700;28;46531;-62
2023/09/09 00:44:19;;;;;;;;;11.50;9.50;;;;;32.23;79.64;100874.47;2088482;28;46681;-62
2023/09/09 00:45:20;;;;;;;;;15.00;14.25;;;;;32.24;79.83;100876.19;2087642;28;46605;-61
2023/09/09 00:46:20;;;;;;;;;11.50;11.50;;;;;32.22;79.82;100876.38;2094449;28;46621;-63
2023/09/09 00:47:20;;;;;;;;;15.00;13.00;;;;;32.21;79.83;100873.81;2087202;28;46429;-62
2023/09/09 00:48:21;;;;;;;;;13.00;13.00;;;;;32.21;79.77;100874.66;2087548;28;46465;-62
2023/09/09 00:49:21;;;;;;;;;15.25;13.00;;;;;32.19;80.22;100878.59;2104172;28;46757;-63
2023/09/09 00:50:23;;;;;;;;;12.25;8.50;;;;;32.20;79.87;100872.09;2104161;28;46593;-62
2023/09/09 00:51:23;;;;;;;;;14.20;13.00;;;;;32.19;79.87;100873.13;2117839;27;46392;-63
2023/09/09 00:52:24;;;;;;;;;9.00;8.00;;;;;32.17;80.10;100869.69;2120680;27;46806;-62
2023/09/09 00:53:25;;;;;;;;;10.25;10.25;;;;;32.17;80.33;100867.81;2113744;27;46141;-63
2023/09/09 00:54:26;;;;;;;;;11.20;11.20;;;;;32.27;80.20;100872.25;2121759;27;46837;-62
2023/09/09 00:55:27;;;;;;;;;14.75;12.25;;;;;32.14;80.38;100876.38;2121292;27;46830;-62
2023/09/09 00:56:27;;;;;;;;;11.80;10.80;;;;;32.13;80.08;100880.13;2121600;27;46561;-60
2023/09/09 00:57:28;;;;;;;;;15.00;12.75;;;;;32.12;80.16;100872.06;2120880;27;45739;-62
2023/09/09 00:58:30;;;;;;;;;11.00;10.50;;;;;32.12;80.69;100870.19;2121902;27;46938;-61
2023/09/09 00:59:31;;;;;;;;;12.20;10.00;;;;;32.10;80.89;100882.38;2122212;27;46227;-62
2023/09/09 01:00:31;;;;;;;;;9.75;9.75;;;;;32.11;80.57;100873.09;2122047;27;46804;-62
2023/09/09 01:01:32;;;;;;;;;11.00;11.00;;;;;32.10;80.16;100874.97;2122163;27;46684;-63
2023/09/09 01:02:33;;;;;;;;;12.00;12.00;;;;;32.16;80.03;100878.97;2116469;27;46683;-61
2023/09/09 01:03:33;;;;;;;;;12.25;12.25;;;;;32.08;80.22;100877.03;2104419;27;46568;-60
2023/09/09 01:04:34;;;;;;;;;12.00;12.00;;;;;32.11;80.41;100876.69;2113108;27;46449;-63
2023/09/09 01:05:36;;;;;;;;;12.25;11.25;;;;;32.05;80.46;100874.63;2118738;27;46723;-62
2023/09/09 01:06:36;;;;;;;;;12.00;11.60;;;;;32.04;80.28;100878.41;2112788;27;46387;-62
2023/09/09 01:07:48;;;;;;;;;9.00;9.00;;;;;32.06;80.61;100875.50;2113005;27;46551;-62
2023/09/09 01:08:49;;;;;;;;;12.40;12.40;;;;;32.06;80.40;100881.84;2122074;27;47241;-61
2023/09/09 01:09:49;;;;;;;;;13.80;12.40;;;;;32.04;80.35;100883.91;2112547;27;46397;-62
2023/09/09 01:10:49;;;;;;;;;12.25;12.25;;;;;32.03;80.94;100884.09;2112926;27;46433;-63
2023/09/09 01:11:50;;;;;;;;;11.75;11.00;;;;;32.03;80.90;100890.44;2119498;27;46472;-62
2023/09/09 01:12:50;;;;;;;;;13.00;13.00;;;;;32.02;80.57;100888.72;2097349;27;46261;-63
2023/09/09 01:13:50;;;;;;;;;11.00;11.00;;;;;32.00;80.70;100888.00;2094633;28;46274;-62
2023/09/09 01:14:51;;;;;;;;;10.75;10.75;;;;;32.01;81.08;100888.84;2114570;27;46044;-63
2023/09/09 01:15:52;;;;;;;;;11.75;10.50;;;;;32.02;80.61;100885.97;2121532;27;46368;-62
2023/09/09 01:16:53;;;;;;;;;13.00;12.40;;;;;32.01;80.31;100886.09;2120873;27;46892;-63
2023/09/09 01:17:54;;;;;;;;;11.20;11.00;;;;;32.01;80.72;100888.84;2116750;27;46344;-62
2023/09/09 01:18:54;;;;;;;;;9.75;9.75;;;;;31.92;80.46;100886.13;2121445;27;46674;-62
2023/09/09 01:20:00;;;;;;;;;11.00;11.00;;;;;31.98;81.09;100884.56;2121892;27;46839;-63
2023/09/09 01:21:11;;;;;;;;;11.00;11.00;;;;;32.05;80.43;100877.38;2113693;27;46245;-62
2023/09/09 01:22:18;;;;;;;;;11.80;11.40;;;;;32.06;80.62;100876.34;2121877;27;46679;-63
2023/09/09 01:23:19;;;;;;;;;10.20;10.00;;;;;32.07;80.45;100877.22;2112783;27;46508;-62
2023/09/09 01:24:19;;;;;;;;;15.00;12.25;;;;;32.06;80.78;100884.59;2113049;27;46374;-62
2023/09/09 01:25:20;;;;;;;;;10.25;9.00;;;;;32.07;80.86;100874.47;2121590;27;46582;-62
2023/09/09 01:26:20;;;;;;;;;12.00;11.00;;;;;32.08;80.47;100873.44;2121880;27;46214;-63
2023/09/09 01:27:20;;;;;;;;;13.00;12.00;;;;;32.06;80.68;100873.63;2121640;27;46837;-62
2023/09/09 01:28:22;;;;;;;;;11.75;11.25;;;;;32.06;80.98;100867.25;2116363;27;46640;-64
2023/09/09 01:29:22;;;;;;;;;10.40;9.60;;;;;32.08;80.90;100877.03;2119868;27;46612;-63
2023/09/09 01:30:23;;;;;;;;;13.00;11.75;;;;;32.06;80.26;100872.75;2118169;27;46450;-61
2023/09/09 01:31:23;;;;;;;;;10.75;10.75;;;;;32.07;80.32;100874.47;2122363;27;46933;-62
2023/09/09 01:32:24;;;;;;;;;10.50;10.50;;;;;32.07;80.65;100875.31;2112528;27;45899;-62
2023/09/09 01:33:25;;;;;;;;;15.25;13.75;;;;;32.07;80.50;100874.47;2112517;27;46678;-62
2023/09/09 01:34:25;;;;;;;;;10.25;10.25;;;;;32.07;80.47;100878.06;2120864;27;46171;-62
2023/09/09 01:35:25;;;;;;;;;11.75;11.75;;;;;32.06;80.80;100873.63;2119312;27;46281;-63
2023/09/09 01:36:25;;;;;;;;;10.50;10.50;;;;;32.05;80.25;100873.78;2114172;27;46773;-62
2023/09/09 01:37:26;;;;;;;;;12.00;11.25;;;;;32.07;80.36;100878.06;2114089;27;46744;-63
2023/09/09 01:38:26;;;;;;;;;13.75;12.75;;;;;32.06;80.03;100870.88;2121678;27;46198;-62
2023/09/09 01:39:26;;;;;;;;;15.25;12.75;;;;;32.05;80.35;100880.13;2121368;27;46407;-64
2023/09/09 01:40:27;;;;;;;;;13.50;12.50;;;;;32.05;80.15;100888.38;2104134;28;46305;-61
2023/09/09 01:41:27;;;;;;;;;10.75;10.00;;;;;32.06;80.15;100876.34;2103357;28;46249;-63
2023/09/09 01:42:27;;;;;;;;;12.25;12.25;;;;;32.05;80.27;100871.03;2112001;27;46861;-62
2023/09/09 01:43:28;;;;;;;;;12.00;10.50;;;;;32.04;80.33;100872.06;2122111;27;46271;-63
2023/09/09 01:44:28;;;;;;;;;12.25;12.25;;;;;32.03;80.54;100873.09;2113645;27;46191;-63
2023/09/09 01:45:28;;;;;;;;;11.50;10.50;;;;;32.03;80.29;100871.22;2120076;27;46791;-63
2023/09/09 01:46:28;;;;;;;;;10.50;9.75;;;;;32.03;80.07;100882.19;2116518;27;46403;-63
2023/09/09 01:47:29;;;;;;;;;12.75;11.50;;;;;32.05;80.00;100879.28;2111970;27;45087;-63
2023/09/09 01:48:29;;;;;;;;;11.00;11.00;;;;;32.02;80.00;100872.25;2112648;27;46246;-62
2023/09/09 01:49:29;;;;;;;;;11.25;11.25;;;;;32.03;80.29;100876.69;2121713;27;47210;-60
2023/09/09 01:50:30;;;;;;;;;10.25;10.00;;;;;32.03;80.28;100876.69;2120010;27;46850;-61
2023/09/09 01:51:32;;;;;;;;;12.00;12.00;;;;;32.03;79.90;100884.09;2121362;27;46357;-60
2023/09/09 01:52:32;;;;;;;;;4.60;3.00;;;;;32.03;79.63;100875.84;2121873;27;46333;-61
2023/09/09 01:53:32;;;;;;;;;11.00;11.00;;;;;32.03;79.77;100876.69;2120989;27;47124;-61
2023/09/09 01:54:33;;;;;;;;;13.50;11.50;;;;;32.00;80.02;100882.50;2118378;27;46273;-62
2023/09/09 01:55:33;;;;;;;;;11.50;11.50;;;;;32.00;79.78;100868.78;2121818;27;46373;-61
2023/09/09 01:56:34;;;;;;;;;11.50;11.00;;;;;32.00;80.37;100876.16;2119702;27;46379;-62
2023/09/09 01:57:34;;;;;;;;;9.75;8.25;;;;;32.03;79.63;100873.97;2112647;27;47200;-62
2023/09/09 01:58:34;;;;;;;;;12.50;11.75;;;;;32.00;80.42;100877.00;2122552;27;46402;-62
2023/09/09 01:59:35;;;;;;;;;9.25;9.25;;;;;32.21;79.68;100879.28;2120457;27;46230;-61
2023/09/09 02:00:35;;;;;;;;;11.50;10.75;;;;;32.25;79.12;100872.41;2117232;27;46622;-62
2023/09/09 02:01:35;;;;;;;;;11.75;10.75;;;;;32.28;79.00;100874.88;2123522;27;46826;-63
2023/09/09 02:02:36;;;;;;;;;7.75;7.75;;;;;32.28;79.38;100871.25;2114162;27;46291;-62
2023/09/09 02:03:36;;;;;;;;;11.75;11.75;;;;;32.29;79.02;100873.84;2112651;27;46063;-61
2023/09/09 02:04:36;;;;;;;;;9.00;9.00;;;;;32.29;79.15;100870.25;2113204;27;46206;-62
2023/09/09 02:05:37;;;;;;;;;12.25;11.75;;;;;32.29;79.36;100871.09;2113897;27;46400;-61
2023/09/09 02:06:37;;;;;;;;;9.00;8.50;;;;;32.29;79.13;100868.34;2116877;27;46775;-62
2023/09/09 02:07:37;;;;;;;;;12.00;12.00;;;;;32.29;79.28;100873.84;2123891;27;46318;-61
2023/09/09 02:08:38;;;;;;;;;11.50;11.25;;;;;32.30;79.30;100874.72;2123185;27;46246;-62
2023/09/09 02:09:38;;;;;;;;;10.00;10.00;;;;;32.29;79.01;100871.09;2112228;27;46331;-62
2023/09/09 02:10:39;;;;;;;;;12.75;12.00;;;;;32.29;79.64;100876.59;2109240;27;46574;-60
2023/09/09 02:11:40;;;;;;;;;11.00;11.00;;;;;32.29;79.84;100881.25;2119116;27;46737;-62
2023/09/09 02:12:40;;;;;;;;;14.75;13.00;;;;;32.28;79.51;100874.00;2121676;27;46423;-62
2023/09/09 02:13:41;;;;;;;;;11.75;11.00;;;;;32.25;79.88;100872.41;2118567;27;46525;-62
2023/09/09 02:14:41;;;;;;;;;12.25;12.25;;;;;32.23;79.71;100874.47;2119981;27;46327;-63
2023/09/09 02:15:43;;;;;;;;;11.50;10.75;;;;;32.24;80.57;100873.44;2122926;27;46416;-62
2023/09/09 02:16:44;;;;;;;;;15.80;13.60;;;;;32.20;80.09;100867.44;2122866;27;46590;-62
2023/09/09 02:17:46;;;;;;;;;11.00;11.00;;;;;32.26;80.65;100878.78;2123085;27;46429;-62
2023/09/09 02:18:47;;;;;;;;;11.80;11.80;;;;;32.18;80.71;100868.66;2123231;27;46929;-62
2023/09/09 02:19:55;;;;;;;;;11.60;10.20;;;;;32.26;80.83;100870.53;2122868;27;46745;-62
2023/09/09 02:20:59;;;;;;;;;13.60;13.60;;;;;32.28;80.45;100872.13;2123035;27;46968;-62
2023/09/09 02:21:59;;;;;;;;;11.20;11.20;;;;;32.27;80.22;100872.25;2122611;27;46209;-62
2023/09/09 02:22:59;;;;;;;;;10.50;10.50;;;;;32.25;80.79;100869.69;2122099;27;46863;-62
2023/09/09 02:24:00;;;;;;;;;12.75;11.50;;;;;32.25;80.75;100869.69;2123359;27;46225;-61
2023/09/09 02:25:00;;;;;;;;;14.75;14.00;;;;;32.27;80.56;100872.25;2122802;27;46544;-62
2023/09/09 02:26:00;;;;;;;;;12.25;12.00;;;;;32.25;80.96;100866.06;2121595;27;46127;-62
2023/09/09 02:27:02;;;;;;;;;13.00;13.00;;;;;32.24;81.31;100867.97;2122737;27;46690;-62
2023/09/09 02:28:03;;;;;;;;;11.00;10.80;;;;;32.24;80.70;100864.34;2114810;27;46888;-61
2023/09/09 02:29:03;;;;;;;;;14.00;13.50;;;;;32.22;81.06;100868.13;2114485;27;46527;-62
2023/09/09 02:30:04;;;;;;;;;13.25;12.50;;;;;32.21;80.91;100866.41;2114161;27;46165;-62
2023/09/09 02:31:04;;;;;;;;;14.00;12.50;;;;;32.21;81.39;100865.56;2114233;27;46256;-62
2023/09/09 02:32:05;;;;;;;;;11.75;11.75;;;;;32.20;81.08;100863.84;2122105;27;46705;-62
2023/09/09 02:33:05;;;;;;;;;14.00;13.00;;;;;32.20;81.18;100872.09;2120411;27;46834;-62
2023/09/09 02:34:06;;;;;;;;;18.75;13.50;;;;;32.19;81.42;100865.72;2115808;27;46548;-61
2023/09/09 02:35:08;;;;;;;;;11.00;9.50;;;;;32.20;81.61;100863.84;2123491;27;46551;-63
2023/09/09 02:36:08;;;;;;;;;14.20;11.20;;;;;32.19;81.34;100870.38;2119619;27;46414;-63
2023/09/09 02:37:16;;;;;;;;;13.00;12.75;;;;;32.19;81.66;100870.38;2113116;27;46369;-62
2023/09/09 02:38:17;;;;;;;;;14.20;13.00;;;;;32.19;81.62;100870.38;2115094;27;46292;-63
2023/09/09 02:39:17;;;;;;;;;12.75;12.25;;;;;32.18;81.37;100872.25;2123089;27;46306;-60
2023/09/09 02:40:17;;;;;;;;;12.25;12.25;;;;;32.01;81.74;100867.75;2114320;27;45686;-62
2023/09/09 02:41:18;;;;;;;;;10.25;10.25;;;;;31.92;82.30;100866.91;2122326;27;46460;-62
2023/09/09 02:42:20;;;;;;;;;14.25;12.75;;;;;32.06;82.74;100868.13;2113648;27;46663;-62
2023/09/09 02:43:20;;;;;;;;;13.80;13.60;;;;;32.11;82.29;100868.47;2114078;27;46724;-62
2023/09/09 02:44:21;;;;;;;;;12.75;11.75;;;;;32.12;82.49;100861.06;2122927;27;46246;-61
2023/09/09 02:45:21;;;;;;;;;14.50;12.50;;;;;32.12;81.96;100869.31;2122501;27;46684;-62
2023/09/09 02:46:21;;;;;;;;;12.75;12.25;;;;;32.12;82.62;100869.31;2122409;27;46613;-62
2023/09/09 02:47:22;;;;;;;;;11.75;11.75;;;;;32.11;82.94;100862.13;2122754;27;46713;-61
2023/09/09 02:48:22;;;;;;;;;10.75;10.25;;;;;32.13;82.42;100871.03;2123205;27;46817;-61
2023/09/09 02:49:22;;;;;;;;;12.50;12.25;;;;;32.11;82.44;100871.22;2122514;27;46253;-61
2023/09/09 02:50:23;;;;;;;;;14.75;12.50;;;;;32.14;82.13;100872.75;2120312;27;46733;-61
2023/09/09 02:51:23;;;;;;;;;9.50;9.25;;;;;32.10;82.27;100869.50;2122850;27;46474;-62
2023/09/09 02:52:24;;;;;;;;;15.25;14.50;;;;;32.08;82.60;100868.81;2122697;27;46345;-62
2023/09/09 02:53:24;;;;;;;;;10.75;10.75;;;;;32.06;82.81;100868.13;2123061;27;45609;-62
2023/09/09 02:54:24;;;;;;;;;12.25;12.25;;;;;32.04;82.60;100861.09;2121987;27;46340;-62
2023/09/09 02:55:25;;;;;;;;;13.50;12.00;;;;;32.03;82.91;100870.34;2120020;27;46613;-63
2023/09/09 02:56:25;;;;;;;;;13.50;13.50;;;;;32.02;83.07;100871.38;2122493;27;46291;-61
2023/09/09 02:57:25;;;;;;;;;15.50;15.50;;;;;32.01;82.70;100864.16;2119156;27;46464;-62
2023/09/09 02:58:26;;;;;;;;;14.00;12.50;;;;;32.01;83.37;100859.50;2113664;27;46601;-62
2023/09/09 02:59:26;;;;;;;;;15.00;15.00;;;;;31.99;83.51;100867.06;2113554;27;46841;-62
2023/09/09 03:00:26;;;;;;;;;12.75;12.00;;;;;32.00;83.83;100876.16;2113820;27;46171;-62
2023/09/09 03:01:26;;;;;;;;;12.00;12.00;;;;;32.00;83.87;100870.66;2113437;27;46793;-61
2023/09/09 03:02:27;;;;;;;;;10.25;10.25;;;;;31.97;84.14;100862.78;2116950;27;46266;-61
2023/09/09 03:03:27;;;;;;;;;12.00;11.75;;;;;31.97;84.32;100862.78;2115357;27;46831;-61
2023/09/09 03:04:27;;;;;;;;;17.25;16.25;;;;;31.94;84.11;100868.59;2131059;27;46123;-62
2023/09/09 03:05:28;;;;;;;;;14.25;12.50;;;;;31.94;84.32;100869.47;2121472;27;46301;-61
2023/09/09 03:06:28;;;;;;;;;15.00;13.75;;;;;31.74;84.38;100868.88;2122585;27;46921;-62
2023/09/09 03:07:28;;;;;;;;;13.50;13.50;;;;;31.61;85.10;100865.72;2113645;27;46420;-61
2023/09/09 03:08:29;;;;;;;;;17.00;16.00;;;;;31.57;85.73;100865.22;2113401;27;46866;-61
2023/09/09 03:09:31;;;;;;;;;14.25;14.25;;;;;31.56;85.74;100865.38;2121295;27;46129;-61
2023/09/09 03:10:32;;;;;;;;;15.80;15.80;;;;;31.54;86.35;100867.44;2121010;27;46733;-62
2023/09/09 03:11:32;;;;;;;;;15.00;14.25;;;;;31.53;86.18;100868.47;2113592;27;46420;-63
2023/09/09 03:12:33;;;;;;;;;13.00;12.00;;;;;31.52;86.33;100870.34;2112428;27;46804;-62
2023/09/09 03:13:33;;;;;;;;;13.50;13.50;;;;;31.52;86.41;100866.75;2119820;27;46296;-63
2023/09/09 03:14:33;;;;;;;;;13.75;13.25;;;;;31.50;86.58;100872.38;2122129;27;46272;-62
2023/09/09 03:15:34;;;;;;;;;14.75;13.75;;;;;31.50;86.98;100860.53;2121550;27;46426;-61
2023/09/09 03:16:35;;;;;;;;;14.50;13.25;;;;;31.49;86.72;100865.16;2121754;27;46302;-62
2023/09/09 03:17:36;;;;;;;;;13.80;13.40;;;;;31.48;87.21;100866.19;2122069;27;46831;-62
2023/09/09 03:18:36;;;;;;;;;12.50;11.50;;;;;31.48;86.60;100865.34;2121541;27;46446;-62
2023/09/09 03:19:36;;;;;;;;;17.25;15.50;;;;;31.48;87.08;100863.44;2123276;27;46713;-62
2023/09/09 03:20:37;;;;;;;;;13.50;13.50;;;;;31.47;87.00;100859.00;2122882;27;46563;-62
2023/09/09 03:21:37;;;;;;;;;10.50;9.75;;;;;31.45;86.76;100863.78;2117662;27;46462;-61
2023/09/09 03:22:37;;;;;;;;;13.00;12.75;;;;;31.73;86.88;100858.91;2122516;27;46696;-61
2023/09/09 03:23:38;;;;;;;;;11.25;11.25;;;;;31.86;85.44;100863.94;2121450;27;46388;-61
2023/09/09 03:24:38;;;;;;;;;13.25;12.00;;;;;31.92;85.35;100861.41;2122903;27;46626;-63
2023/09/09 03:25:38;;;;;;;;;10.75;10.75;;;;;31.58;86.22;100866.91;2118649;27;46534;-61
2023/09/09 03:26:38;;;;;;;;;11.75;11.75;;;;;31.90;85.30;100868.09;2121626;27;46619;-61
2023/09/09 03:27:39;;;;;;;;;12.00;12.00;;;;;32.02;84.59;100861.25;2120752;27;46372;-61
2023/09/09 03:28:39;;;;;;;;;14.00;13.50;;;;;32.05;84.67;100860.91;2118721;27;46772;-62
2023/09/09 03:29:39;;;;;;;;;12.25;11.00;;;;;32.09;84.03;100858.69;2119113;27;45958;-63
2023/09/09 03:30:57;;;;;;;;;13.00;13.00;;;;;32.10;84.56;100866.75;2112350;27;46363;-63
2023/09/09 03:31:57;;;;;;;;;13.00;12.80;;;;;32.10;84.17;100864.00;2115607;27;46411;-62
2023/09/09 03:32:59;;;;;;;;;11.75;11.75;;;;;32.04;84.03;100861.09;2123228;27;46730;-62
2023/09/09 03:33:59;;;;;;;;;12.80;12.80;;;;;32.12;84.13;100861.94;2121934;27;46878;-62
2023/09/09 03:34:59;;;;;;;;;12.50;12.50;;;;;32.15;83.83;100866.25;2113434;27;46546;-63
2023/09/09 03:36:00;;;;;;;;;12.75;12.75;;;;;32.15;84.21;100866.25;2113613;27;46889;-62
2023/09/09 03:37:00;;;;;;;;;10.75;10.75;;;;;32.16;83.94;100863.34;2124514;27;46684;-62
2023/09/09 03:38:00;;;;;;;;;14.25;13.50;;;;;32.29;83.84;100862.88;2113008;27;46626;-62
2023/09/09 03:39:03;;;;;;;;;14.50;12.50;;;;;32.35;83.71;100862.16;2113603;27;46365;-63
2023/09/09 03:40:05;;;;;;;;;13.40;13.00;;;;;32.35;82.85;100859.41;2122395;27;46773;-62
2023/09/09 03:41:06;;;;;;;;;12.00;12.00;;;;;32.32;83.61;100861.66;2113524;27;46415;-62
2023/09/09 03:42:06;;;;;;;;;14.80;14.00;;;;;32.37;82.79;100862.84;2113067;27;46476;-63
2023/09/09 03:43:07;;;;;;;;;11.25;10.75;;;;;32.36;82.72;100863.88;2121614;27;46432;-62
2023/09/09 03:44:07;;;;;;;;;16.25;15.50;;;;;32.40;82.48;100862.53;2119493;27;46372;-62
2023/09/09 03:45:09;;;;;;;;;12.25;11.50;;;;;32.39;82.29;100860.78;2122548;27;46475;-63
2023/09/09 03:46:09;;;;;;;;;13.80;12.00;;;;;32.29;82.98;100868.34;2113289;27;46578;-61
2023/09/09 03:47:10;;;;;;;;;13.00;11.25;;;;;32.25;83.03;100866.94;2113028;27;46385;-62
2023/09/09 03:48:10;;;;;;;;;12.75;12.50;;;;;32.31;83.42;100862.69;2104915;28;46240;-63
2023/09/09 03:49:10;;;;;;;;;12.50;12.50;;;;;32.36;83.11;100863.88;2104862;28;45036;-63
2023/09/09 03:50:11;;;;;;;;;12.00;11.00;;;;;32.45;82.79;100864.75;2122111;27;46348;-62
2023/09/09 03:51:11;;;;;;;;;14.25;13.25;;;;;32.26;83.07;100865.91;2113567;27;46009;-62
2023/09/09 03:52:11;;;;;;;;;13.25;13.25;;;;;31.94;82.61;100863.13;2112824;27;46669;-62
2023/09/09 03:53:12;;;;;;;;;14.75;13.75;;;;;31.67;85.37;100870.56;2120020;27;46782;-63
2023/09/09 03:54:12;;;;;;;;;17.25;17.00;;;;;31.41;86.82;100862.41;2113411;27;46295;-63
2023/09/09 03:55:12;;;;;;;;;14.50;14.50;;;;;31.49;86.42;100858.81;2113118;27;46867;-63
2023/09/09 03:56:13;;;;;;;;;10.25;10.25;;;;;31.47;87.08;100860.88;2122782;27;45935;-63
2023/09/09 03:57:13;;;;;;;;;9.00;9.00;;;;;31.47;87.16;100861.72;2122292;27;46803;-63
2023/09/09 03:58:13;;;;;;;;;10.75;10.50;;;;;31.46;87.66;100861.91;2122762;27;45526;-63
2023/09/09 03:59:14;;;;;;;;;13.75;12.25;;;;;31.46;87.28;100857.28;2120888;27;45902;-63
2023/09/09 04:00:14;;;;;;;;;14.50;13.75;;;;;31.44;87.08;100869.44;2122769;27;46493;-61
2023/09/09 04:01:15;;;;;;;;;14.75;13.75;;;;;31.44;87.27;100867.56;2122059;27;46451;-63
2023/09/09 04:02:15;;;;;;;;;14.50;14.50;;;;;31.67;87.58;100870.56;2117142;27;46290;-63
2023/09/09 04:03:15;;;;;;;;;13.50;13.00;;;;;31.45;87.68;100861.03;2112564;27;46328;-62
2023/09/09 04:04:16;;;;;;;;;14.00;13.25;;;;;31.43;87.42;100862.25;2111409;27;46544;-62
2023/09/09 04:05:16;;;;;;;;;16.00;15.50;;;;;31.41;87.89;100859.66;2122330;27;46412;-61
2023/09/09 04:06:17;;;;;;;;;13.00;13.00;;;;;31.40;88.14;100865.31;2122069;27;46432;-62
2023/09/09 04:07:17;;;;;;;;;13.50;13.25;;;;;31.38;88.67;100870.09;2122323;27;46160;-61
2023/09/09 04:08:18;;;;;;;;;10.75;10.75;;;;;31.36;87.80;100867.50;2114682;27;47053;-62
2023/09/09 04:09:22;;;;;;;;;13.75;13.75;;;;;31.38;88.33;100870.09;2118079;27;46719;-62
2023/09/09 04:10:23;;;;;;;;;11.80;11.80;;;;;31.36;88.37;100870.25;2122109;27;47035;-62
2023/09/09 04:11:23;;;;;;;;;12.50;11.50;;;;;31.35;88.46;100874.00;2104292;28;46472;-62
2023/09/09 04:12:23;;;;;;;;;12.50;12.50;;;;;31.32;88.17;100864.25;2104651;27;46534;-63
2023/09/09 04:13:24;;;;;;;;;12.50;12.00;;;;;31.31;88.54;100868.00;2100068;28;46827;-62
2023/09/09 04:14:24;;;;;;;;;14.25;13.25;;;;;31.28;88.72;100868.34;2099926;28;46308;-63
2023/09/09 04:15:24;;;;;;;;;11.75;11.75;;;;;31.27;88.21;100861.16;2108238;27;46334;-62
2023/09/09 04:16:25;;;;;;;;;11.50;11.00;;;;;31.25;88.91;100865.03;2102530;28;46289;-62
2023/09/09 04:17:25;;;;;;;;;13.75;13.00;;;;;31.22;88.58;100865.38;2104338;28;46273;-62
2023/09/09 04:18:27;;;;;;;;;11.00;11.00;;;;;31.09;89.66;100871.28;2104430;28;46482;-63
2023/09/09 04:19:27;;;;;;;;;14.60;13.20;;;;;31.24;89.49;100871.56;2105134;28;46865;-62
2023/09/09 04:20:27;;;;;;;;;10.75;10.75;;;;;31.23;89.56;100870.69;2103997;27;46728;-62
2023/09/09 04:21:29;;;;;;;;;12.50;12.00;;;;;31.22;88.98;100866.25;2102339;28;46438;-62
2023/09/09 04:22:29;;;;;;;;;11.80;11.80;;;;;31.23;89.24;100867.09;2103778;28;47165;-62
2023/09/09 04:23:30;;;;;;;;;11.00;10.50;;;;;31.23;89.59;100875.31;2103767;28;46414;-62
2023/09/09 04:24:30;;;;;;;;;13.75;13.50;;;;;31.21;89.25;100867.28;2095698;28;46353;-62
2023/09/09 04:25:30;;;;;;;;;14.25;13.25;;;;;31.20;89.48;100872.91;2102425;28;46575;-62
2023/09/09 04:26:31;;;;;;;;;12.00;12.00;;;;;31.20;89.55;100870.19;2104705;27;46273;-61
2023/09/09 04:27:31;;;;;;;;;12.50;12.50;;;;;31.21;89.40;100880.13;2111460;27;46864;-62
2023/09/09 04:28:32;;;;;;;;;12.50;12.50;;;;;31.22;89.86;100876.34;2103948;28;46500;-62
2023/09/09 04:29:32;;;;;;;;;11.50;11.50;;;;;31.22;90.24;100873.59;2104560;28;46249;-62
2023/09/09 04:30:32;;;;;;;;;14.25;14.25;;;;;31.21;90.35;100880.97;2104518;28;46319;-62
2023/09/09 04:31:33;;;;;;;;;17.50;14.50;;;;;31.21;89.59;100878.22;2104211;28;46239;-61
2023/09/09 04:32:34;;;;;;;;;11.00;11.00;;;;;31.22;89.94;100881.84;2103977;28;46863;-60
2023/09/09 04:33:34;;;;;;;;;13.20;13.20;;;;;31.21;89.65;100883.72;2102466;28;46699;-61
2023/09/09 04:34:35;;;;;;;;;13.50;13.50;;;;;31.18;90.13;100873.06;2103249;28;46465;-62
2023/09/09 04:35:35;;;;;;;;;14.00;14.00;;;;;31.20;89.70;100875.66;2104461;28;46209;-62
2023/09/09 04:36:35;;;;;;;;;16.25;15.25;;;;;31.19;90.12;100869.31;2094886;28;46175;-61